sensor_id;sensor_type;location;lat;lon;timestamp;pressure;altitude;pressure_sealevel;temperature;humidity
3178;BME280;38141;42.666;23.344;2023-02-22T00:00:13;94629.16;;;8.79;53.39
3178;BME280;38141;42.666;23.344;2023-02-22T00:02:45;94648.50;;;8.88;54.01
3178;BME280;38141;42.666;23.344;2023-02-22T00:05:13;94646.84;;;8.76;54.24
3178;BME280;38141;42.666;23.344;2023-02-22T00:07:42;94651.56;;;8.86;54.04
3178;BME280;38141;42.666;23.344;2023-02-22T00:10:10;94652.16;;;8.69;53.74
3178;BME280;38141;42.666;23.344;2023-02-22T00:12:40;94650.81;;;8.89;54.06
3178;BME280;38141;42.666;23.344;2023-02-22T00:15:08;94649.81;;;8.64;54.48
3178;BME280;38141;42.666;23.344;2023-02-22T00:17:37;94651.16;;;8.44;55.16
3178;BME280;38141;42.666;23.344;2023-02-22T00:20:05;94647.69;;;8.43;55.95
3178;BME280;38141;42.666;23.344;2023-02-22T00:22:32;94646.16;;;8.46;54.74
3178;BME280;38141;42.666;23.344;2023-02-22T00:24:59;94634.19;;;8.40;55.33
3178;BME280;38141;42.666;23.344;2023-02-22T00:27:27;94618.06;;;8.14;55.14
3178;BME280;38141;42.666;23.344;2023-02-22T00:29:53;94577.69;;;8.17;54.77
3178;BME280;38141;42.666;23.344;2023-02-22T00:32:21;94623.34;;;8.36;55.65
3178;BME280;38141;42.666;23.344;2023-02-22T00:34:50;94575.69;;;8.11;55.34
3178;BME280;38141;42.666;23.344;2023-02-22T00:37:17;94631.00;;;8.31;56.28
3178;BME280;38141;42.666;23.344;2023-02-22T00:39:45;94601.88;;;8.14;56.45
3178;BME280;38141;42.666;23.344;2023-02-22T00:42:12;94631.09;;;8.41;55.34
3178;BME280;38141;42.666;23.344;2023-02-22T00:44:40;94636.09;;;8.39;55.82
3178;BME280;38141;42.666;23.344;2023-02-22T00:47:07;94598.00;;;8.08;56.29
3178;BME280;38141;42.666;23.344;2023-02-22T00:49:34;94626.41;;;8.35;55.84
3178;BME280;38141;42.666;23.344;2023-02-22T00:52:00;94614.34;;;8.25;56.38
3178;BME280;38141;42.666;23.344;2023-02-22T00:54:27;94609.00;;;7.95;56.60
3178;BME280;38141;42.666;23.344;2023-02-22T00:56:54;94540.16;;;7.65;57.04
3178;BME280;38141;42.666;23.344;2023-02-22T00:59:22;94599.16;;;8.10;57.08
3178;BME280;38141;42.666;23.344;2023-02-22T01:01:50;94613.41;;;8.11;57.20
3178;BME280;38141;42.666;23.344;2023-02-22T01:04:17;94574.50;;;7.71;57.57
3178;BME280;38141;42.666;23.344;2023-02-22T01:06:44;94562.84;;;7.64;57.58
3178;BME280;38141;42.666;23.344;2023-02-22T01:09:11;94606.72;;;7.97;57.28
3178;BME280;38141;42.666;23.344;2023-02-22T01:11:37;94609.31;;;7.57;58.82
3178;BME280;38141;42.666;23.344;2023-02-22T01:14:05;94607.44;;;7.61;59.35
3178;BME280;38141;42.666;23.344;2023-02-22T01:16:34;94601.97;;;7.54;59.72
3178;BME280;38141;42.666;23.344;2023-02-22T01:19:02;94602.44;;;7.33;59.39
3178;BME280;38141;42.666;23.344;2023-02-22T01:21:30;94600.69;;;7.44;59.13
3178;BME280;38141;42.666;23.344;2023-02-22T01:23:57;94593.28;;;7.11;60.20
3178;BME280;38141;42.666;23.344;2023-02-22T01:26:24;94593.66;;;7.10;60.45
3178;BME280;38141;42.666;23.344;2023-02-22T01:28:50;94568.09;;;6.97;61.05
3178;BME280;38141;42.666;23.344;2023-02-22T01:31:17;94592.03;;;7.32;61.01
3178;BME280;38141;42.666;23.344;2023-02-22T01:33:44;94586.34;;;7.37;60.31
3178;BME280;38141;42.666;23.344;2023-02-22T01:36:12;94568.81;;;7.20;60.20
3178;BME280;38141;42.666;23.344;2023-02-22T01:38:39;94595.81;;;7.01;61.18
3178;BME280;38141;42.666;23.344;2023-02-22T01:41:05;94602.00;;;6.79;62.63
3178;BME280;38141;42.666;23.344;2023-02-22T01:43:33;94597.75;;;6.78;63.57
3178;BME280;38141;42.666;23.344;2023-02-22T01:46:01;94587.25;;;6.69;64.17
3178;BME280;38141;42.666;23.344;2023-02-22T01:48:33;94573.44;;;6.93;63.92
3178;BME280;38141;42.666;23.344;2023-02-22T01:51:03;94594.22;;;7.23;63.55
3178;BME280;38141;42.666;23.344;2023-02-22T01:53:44;94601.31;;;7.34;63.43
3178;BME280;38141;42.666;23.344;2023-02-22T01:56:13;94578.06;;;7.23;62.88
3178;BME280;38141;42.666;23.344;2023-02-22T01:58:42;94604.34;;;7.33;62.82
3178;BME280;38141;42.666;23.344;2023-02-22T02:01:11;94596.16;;;7.22;62.82
3178;BME280;38141;42.666;23.344;2023-02-22T02:03:39;94594.78;;;6.83;63.83
3178;BME280;38141;42.666;23.344;2023-02-22T02:06:09;94588.81;;;6.47;65.88
3178;BME280;38141;42.666;23.344;2023-02-22T02:08:45;94575.91;;;6.56;66.63
3178;BME280;38141;42.666;23.344;2023-02-22T02:11:19;94607.56;;;6.66;67.36
3178;BME280;38141;42.666;23.344;2023-02-22T02:13:48;94605.00;;;6.51;66.95
3178;BME280;38141;42.666;23.344;2023-02-22T02:16:15;94613.09;;;6.32;68.56
3178;BME280;38141;42.666;23.344;2023-02-22T02:18:42;94595.84;;;6.33;68.91
3178;BME280;38141;42.666;23.344;2023-02-22T02:24:50;94615.22;;;6.22;70.24
3178;BME280;38141;42.666;23.344;2023-02-22T02:27:24;94611.78;;;6.22;70.27
3178;BME280;38141;42.666;23.344;2023-02-22T02:30:28;94617.63;;;6.28;69.20
3178;BME280;38141;42.666;23.344;2023-02-22T02:33:05;94618.44;;;6.09;70.87
3178;BME280;38141;42.666;23.344;2023-02-22T02:35:41;94622.81;;;6.17;72.13
3178;BME280;38141;42.666;23.344;2023-02-22T02:38:18;94621.03;;;6.24;71.65
3178;BME280;38141;42.666;23.344;2023-02-22T02:40:52;94650.34;;;6.33;70.48
3178;BME280;38141;42.666;23.344;2023-02-22T02:43:27;94503.41;;;5.50;71.44
3178;BME280;38141;42.666;23.344;2023-02-22T02:45:57;94624.50;;;6.25;70.70
3178;BME280;38141;42.666;23.344;2023-02-22T02:48:31;94635.31;;;6.09;70.45
3178;BME280;38141;42.666;23.344;2023-02-22T02:51:00;94631.28;;;5.80;71.83
3178;BME280;38141;42.666;23.344;2023-02-22T02:53:32;94631.63;;;5.79;73.74
3178;BME280;38141;42.666;23.344;2023-02-22T02:56:00;94643.09;;;5.95;74.73
3178;BME280;38141;42.666;23.344;2023-02-22T02:58:28;94631.22;;;5.96;74.68
3178;BME280;38141;42.666;23.344;2023-02-22T03:00:56;94633.50;;;5.94;77.04
3178;BME280;38141;42.666;23.344;2023-02-22T03:03:54;94632.56;;;6.06;77.31
3178;BME280;38141;42.666;23.344;2023-02-22T03:09:33;94608.19;;;5.95;76.25
3178;BME280;38141;42.666;23.344;2023-02-22T03:12:10;94639.66;;;5.95;73.49
3178;BME280;38141;42.666;23.344;2023-02-22T03:14:41;94642.81;;;5.81;75.22
3178;BME280;38141;42.666;23.344;2023-02-22T03:17:15;94609.19;;;5.49;75.03
3178;BME280;38141;42.666;23.344;2023-02-22T03:19:50;94621.81;;;5.67;76.63
3178;BME280;38141;42.666;23.344;2023-02-22T03:22:21;94593.44;;;5.66;78.87
3178;BME280;38141;42.666;23.344;2023-02-22T03:24:56;94622.41;;;5.96;78.58
3178;BME280;38141;42.666;23.344;2023-02-22T03:27:29;94625.94;;;5.80;76.72
3178;BME280;38141;42.666;23.344;2023-02-22T03:30:01;94620.63;;;5.84;77.64
3178;BME280;38141;42.666;23.344;2023-02-22T03:32:32;94603.19;;;5.94;76.30
3178;BME280;38141;42.666;23.344;2023-02-22T03:35:07;94617.44;;;6.17;75.04
3178;BME280;38141;42.666;23.344;2023-02-22T03:37:39;94631.34;;;6.22;73.97
3178;BME280;38141;42.666;23.344;2023-02-22T03:40:11;94628.22;;;5.98;73.46
3178;BME280;38141;42.666;23.344;2023-02-22T03:42:42;94619.50;;;5.85;73.94
3178;BME280;38141;42.666;23.344;2023-02-22T03:45:13;94621.34;;;5.81;77.08
3178;BME280;38141;42.666;23.344;2023-02-22T03:47:42;94556.28;;;5.30;75.71
3178;BME280;38141;42.666;23.344;2023-02-22T03:50:16;94619.41;;;5.81;77.82
3178;BME280;38141;42.666;23.344;2023-02-22T03:52:44;94598.63;;;5.94;75.46
3178;BME280;38141;42.666;23.344;2023-02-22T03:55:12;94629.09;;;6.24;75.04
3178;BME280;38141;42.666;23.344;2023-02-22T03:57:45;94578.47;;;6.04;73.62
3178;BME280;38141;42.666;23.344;2023-02-22T04:00:16;94601.84;;;6.03;73.21
3178;BME280;38141;42.666;23.344;2023-02-22T04:02:44;94591.09;;;5.65;74.91
3178;BME280;38141;42.666;23.344;2023-02-22T04:05:13;94623.84;;;5.90;76.03
3178;BME280;38141;42.666;23.344;2023-02-22T04:07:40;94625.03;;;5.92;76.29
3178;BME280;38141;42.666;23.344;2023-02-22T04:10:08;94632.72;;;5.94;76.42
3178;BME280;38141;42.666;23.344;2023-02-22T04:12:36;94587.06;;;5.74;77.45
3178;BME280;38141;42.666;23.344;2023-02-22T04:15:04;94624.81;;;6.01;77.50
3178;BME280;38141;42.666;23.344;2023-02-22T04:17:31;94529.44;;;5.11;77.97
3178;BME280;38141;42.666;23.344;2023-02-22T04:19:58;94622.25;;;5.69;77.80
3178;BME280;38141;42.666;23.344;2023-02-22T04:22:26;94600.75;;;5.50;78.77
3178;BME280;38141;42.666;23.344;2023-02-22T04:24:53;94623.28;;;5.65;79.17
3178;BME280;38141;42.666;23.344;2023-02-22T04:27:20;94624.16;;;5.69;78.42
3178;BME280;38141;42.666;23.344;2023-02-22T04:29:47;94630.34;;;5.73;79.32
3178;BME280;38141;42.666;23.344;2023-02-22T04:32:14;94625.84;;;5.77;80.27
3178;BME280;38141;42.666;23.344;2023-02-22T04:34:41;94605.69;;;5.29;81.69
3178;BME280;38141;42.666;23.344;2023-02-22T04:37:07;94566.94;;;4.91;84.05
3178;BME280;38141;42.666;23.344;2023-02-22T04:39:36;94577.88;;;5.18;82.95
3178;BME280;38141;42.666;23.344;2023-02-22T04:42:03;94637.84;;;5.64;83.04
3178;BME280;38141;42.666;23.344;2023-02-22T04:44:30;94575.47;;;5.13;82.16
3178;BME280;38141;42.666;23.344;2023-02-22T04:46:57;94630.84;;;5.40;82.41
3178;BME280;38141;42.666;23.344;2023-02-22T04:49:24;94620.66;;;5.30;84.42
3178;BME280;38141;42.666;23.344;2023-02-22T04:51:51;94623.75;;;5.32;86.16
3178;BME280;38141;42.666;23.344;2023-02-22T04:54:17;94627.59;;;5.50;84.38
3178;BME280;38141;42.666;23.344;2023-02-22T04:56:46;94603.00;;;5.29;85.95
3178;BME280;38141;42.666;23.344;2023-02-22T04:59:13;94535.34;;;4.81;85.89
3178;BME280;38141;42.666;23.344;2023-02-22T05:01:39;94623.75;;;5.32;86.25
3178;BME280;38141;42.666;23.344;2023-02-22T05:04:07;94605.38;;;5.15;86.60
3178;BME280;38141;42.666;23.344;2023-02-22T05:06:36;94637.31;;;5.39;86.52
3178;BME280;38141;42.666;23.344;2023-02-22T05:09:03;94611.25;;;5.05;87.24
3178;BME280;38141;42.666;23.344;2023-02-22T05:11:30;94606.94;;;5.00;88.27
3178;BME280;38141;42.666;23.344;2023-02-22T05:13:58;94628.97;;;5.25;88.50
3178;BME280;38141;42.666;23.344;2023-02-22T05:16:25;94636.78;;;4.99;87.26
3178;BME280;38141;42.666;23.344;2023-02-22T05:18:52;94644.31;;;5.09;89.26
3178;BME280;38141;42.666;23.344;2023-02-22T05:21:19;94612.16;;;5.09;89.02
3178;BME280;38141;42.666;23.344;2023-02-22T05:23:45;94642.97;;;5.34;86.86
3178;BME280;38141;42.666;23.344;2023-02-22T05:26:12;94639.75;;;5.28;86.33
3178;BME280;38141;42.666;23.344;2023-02-22T05:28:39;94644.38;;;5.12;87.17
3178;BME280;38141;42.666;23.344;2023-02-22T05:31:08;94639.09;;;5.16;88.90
3178;BME280;38141;42.666;23.344;2023-02-22T05:33:35;94632.75;;;5.24;87.45
3178;BME280;38141;42.666;23.344;2023-02-22T05:36:04;94660.75;;;5.42;84.94
3178;BME280;38141;42.666;23.344;2023-02-22T05:38:32;94678.13;;;5.48;84.13
3178;BME280;38141;42.666;23.344;2023-02-22T05:40:59;94656.28;;;5.65;81.18
3178;BME280;38141;42.666;23.344;2023-02-22T05:43:25;94675.50;;;5.67;81.83
3178;BME280;38141;42.666;23.344;2023-02-22T05:45:52;94686.84;;;5.96;81.83
3178;BME280;38141;42.666;23.344;2023-02-22T05:48:21;94682.00;;;6.62;78.67
3178;BME280;38141;42.666;23.344;2023-02-22T05:50:48;94672.09;;;6.89;72.92
3178;BME280;38141;42.666;23.344;2023-02-22T05:53:15;94691.44;;;7.47;69.43
3178;BME280;38141;42.666;23.344;2023-02-22T05:55:42;94677.47;;;7.65;68.08
3178;BME280;38141;42.666;23.344;2023-02-22T05:58:09;94680.69;;;8.03;65.56
3178;BME280;38141;42.666;23.344;2023-02-22T06:00:36;94675.53;;;8.25;63.72
3178;BME280;38141;42.666;23.344;2023-02-22T06:03:05;94688.34;;;8.65;62.64
3178;BME280;38141;42.666;23.344;2023-02-22T06:05:33;94681.91;;;9.71;60.19
3178;BME280;38141;42.666;23.344;2023-02-22T06:08:01;94686.06;;;10.23;56.86
3178;BME280;38141;42.666;23.344;2023-02-22T06:10:29;94695.81;;;10.42;55.74
3178;BME280;38141;42.666;23.344;2023-02-22T06:12:56;94690.91;;;10.87;54.55
3178;BME280;38141;42.666;23.344;2023-02-22T06:15:24;94690.56;;;11.66;53.07
3178;BME280;38141;42.666;23.344;2023-02-22T06:17:52;94666.91;;;12.02;51.01
3178;BME280;38141;42.666;23.344;2023-02-22T06:20:21;94672.44;;;12.71;49.16
3178;BME280;38141;42.666;23.344;2023-02-22T06:22:51;94619.53;;;12.97;47.49
3178;BME280;38141;42.666;23.344;2023-02-22T06:25:20;94693.69;;;13.94;46.29
3178;BME280;38141;42.666;23.344;2023-02-22T06:27:47;94647.94;;;13.81;44.90
3178;BME280;38141;42.666;23.344;2023-02-22T06:30:15;94658.72;;;14.30;44.80
3178;BME280;38141;42.666;23.344;2023-02-22T06:32:42;94617.88;;;14.30;44.09
3178;BME280;38141;42.666;23.344;2023-02-22T06:35:09;94681.59;;;14.96;43.50
3178;BME280;38141;42.666;23.344;2023-02-22T06:37:36;94686.19;;;15.30;42.42
3178;BME280;38141;42.666;23.344;2023-02-22T06:40:06;94686.50;;;15.62;42.13
3178;BME280;38141;42.666;23.344;2023-02-22T06:42:33;94691.53;;;15.87;41.10
3178;BME280;38141;42.666;23.344;2023-02-22T06:45:00;94692.50;;;16.20;40.79
3178;BME280;38141;42.666;23.344;2023-02-22T06:47:27;94663.97;;;16.44;40.21
3178;BME280;38141;42.666;23.344;2023-02-22T06:49:54;94690.19;;;16.61;40.10
3178;BME280;38141;42.666;23.344;2023-02-22T06:52:21;94690.53;;;16.83;40.29
3178;BME280;38141;42.666;23.344;2023-02-22T06:54:48;94693.25;;;17.19;40.63
3178;BME280;38141;42.666;23.344;2023-02-22T06:57:17;94667.69;;;17.61;39.41
3178;BME280;38141;42.666;23.344;2023-02-22T06:59:44;94688.53;;;17.88;38.75
3178;BME280;38141;42.666;23.344;2023-02-22T07:02:11;94684.97;;;17.74;38.51
3178;BME280;38141;42.666;23.344;2023-02-22T07:04:38;94678.28;;;17.75;38.36
3178;BME280;38141;42.666;23.344;2023-02-22T07:07:05;94687.03;;;18.44;37.85
3178;BME280;38141;42.666;23.344;2023-02-22T07:09:32;94667.91;;;18.86;36.13
3178;BME280;38141;42.666;23.344;2023-02-22T07:11:59;94675.94;;;19.05;35.75
3178;BME280;38141;42.666;23.344;2023-02-22T07:14:27;94685.91;;;18.29;35.66
3178;BME280;38141;42.666;23.344;2023-02-22T07:16:54;94673.63;;;18.05;36.50
3178;BME280;38141;42.666;23.344;2023-02-22T07:19:20;94691.84;;;17.95;36.17
3178;BME280;38141;42.666;23.344;2023-02-22T07:21:49;94701.13;;;17.69;36.94
3178;BME280;38141;42.666;23.344;2023-02-22T07:24:22;94695.31;;;17.31;36.91
3178;BME280;38141;42.666;23.344;2023-02-22T07:26:49;94693.97;;;17.39;36.89
3178;BME280;38141;42.666;23.344;2023-02-22T07:29:15;94697.91;;;17.54;36.98
3178;BME280;38141;42.666;23.344;2023-02-22T07:31:43;94691.34;;;18.00;36.94
3178;BME280;38141;42.666;23.344;2023-02-22T07:34:11;94694.81;;;19.03;35.50
3178;BME280;38141;42.666;23.344;2023-02-22T07:36:38;94697.56;;;20.05;33.43
3178;BME280;38141;42.666;23.344;2023-02-22T07:39:05;94697.69;;;20.70;32.56
3178;BME280;38141;42.666;23.344;2023-02-22T07:41:33;94679.50;;;20.94;32.23
3178;BME280;38141;42.666;23.344;2023-02-22T07:44:00;94659.06;;;22.33;30.42
3178;BME280;38141;42.666;23.344;2023-02-22T07:46:26;94696.03;;;26.10;26.28
3178;BME280;38141;42.666;23.344;2023-02-22T07:48:55;94689.81;;;29.85;23.13
3178;BME280;38141;42.666;23.344;2023-02-22T07:51:28;94705.78;;;31.50;21.46
3178;BME280;38141;42.666;23.344;2023-02-22T07:53:54;94706.16;;;32.30;20.66
3178;BME280;38141;42.666;23.344;2023-02-22T07:56:21;94694.44;;;29.93;21.78
3178;BME280;38141;42.666;23.344;2023-02-22T07:58:48;94687.75;;;27.43;24.17
3178;BME280;38141;42.666;23.344;2023-02-22T08:01:15;94689.81;;;25.37;26.04
3178;BME280;38141;42.666;23.344;2023-02-22T08:03:41;94680.84;;;26.06;25.66
3178;BME280;38141;42.666;23.344;2023-02-22T08:06:13;94668.59;;;26.53;25.59
3178;BME280;38141;42.666;23.344;2023-02-22T08:08:39;94662.59;;;26.34;25.46
3178;BME280;38141;42.666;23.344;2023-02-22T08:11:07;94676.16;;;25.62;25.83
3178;BME280;38141;42.666;23.344;2023-02-22T08:13:34;94598.38;;;25.51;25.66
3178;BME280;38141;42.666;23.344;2023-02-22T08:16:01;94648.56;;;26.43;25.62
3178;BME280;38141;42.666;23.344;2023-02-22T08:18:38;94669.94;;;25.09;25.81
3178;BME280;38141;42.666;23.344;2023-02-22T08:21:05;94672.25;;;25.54;26.08
3178;BME280;38141;42.666;23.344;2023-02-22T08:23:34;94674.06;;;23.56;28.06
3178;BME280;38141;42.666;23.344;2023-02-22T08:26:06;94669.63;;;23.49;28.08
3178;BME280;38141;42.666;23.344;2023-02-22T08:28:33;94661.63;;;26.02;26.08
3178;BME280;38141;42.666;23.344;2023-02-22T08:31:11;94643.97;;;28.06;24.23
3178;BME280;38141;42.666;23.344;2023-02-22T08:33:38;94684.44;;;31.82;21.16
3178;BME280;38141;42.666;23.344;2023-02-22T08:36:06;94666.72;;;36.45;17.61
3178;BME280;38141;42.666;23.344;2023-02-22T08:38:34;94686.16;;;35.05;18.17
3178;BME280;38141;42.666;23.344;2023-02-22T08:41:02;94685.88;;;38.43;16.91
3178;BME280;38141;42.666;23.344;2023-02-22T08:43:28;94686.69;;;39.06;16.14
3178;BME280;38141;42.666;23.344;2023-02-22T08:45:55;94683.47;;;40.64;14.74
3178;BME280;38141;42.666;23.344;2023-02-22T08:48:22;94682.22;;;41.26;14.53
3178;BME280;38141;42.666;23.344;2023-02-22T08:50:49;94684.69;;;43.22;13.96
3178;BME280;38141;42.666;23.344;2023-02-22T08:53:16;94677.38;;;38.05;16.22
3178;BME280;38141;42.666;23.344;2023-02-22T08:55:45;94672.19;;;36.01;17.46
3178;BME280;38141;42.666;23.344;2023-02-22T08:58:12;94666.16;;;35.97;17.42
3178;BME280;38141;42.666;23.344;2023-02-22T09:00:39;94664.38;;;35.32;17.79
3178;BME280;38141;42.666;23.344;2023-02-22T09:03:10;94661.91;;;33.97;18.93
3178;BME280;38141;42.666;23.344;2023-02-22T09:05:37;94656.22;;;35.62;17.66
3178;BME280;38141;42.666;23.344;2023-02-22T09:08:04;94657.69;;;35.56;18.79
3178;BME280;38141;42.666;23.344;2023-02-22T09:10:32;94660.28;;;37.01;17.82
3178;BME280;38141;42.666;23.344;2023-02-22T09:13:01;94635.56;;;34.53;18.38
3178;BME280;38141;42.666;23.344;2023-02-22T09:15:29;94659.06;;;37.91;16.53
3178;BME280;38141;42.666;23.344;2023-02-22T09:17:55;94668.22;;;39.45;16.19
3178;BME280;38141;42.666;23.344;2023-02-22T09:20:23;94678.78;;;43.68;13.64
3178;BME280;38141;42.666;23.344;2023-02-22T09:22:51;94676.97;;;44.63;13.39
3178;BME280;38141;42.666;23.344;2023-02-22T09:25:18;94669.53;;;43.48;13.58
3178;BME280;38141;42.666;23.344;2023-02-22T09:27:47;94673.94;;;41.82;14.09
3178;BME280;38141;42.666;23.344;2023-02-22T09:30:21;94667.41;;;42.72;13.89
3178;BME280;38141;42.666;23.344;2023-02-22T09:32:50;94663.78;;;44.79;13.22
3178;BME280;38141;42.666;23.344;2023-02-22T09:35:17;94657.88;;;42.04;14.31
3178;BME280;38141;42.666;23.344;2023-02-22T09:37:44;94656.94;;;43.13;14.13
3178;BME280;38141;42.666;23.344;2023-02-22T09:40:15;94656.75;;;41.63;13.81
3178;BME280;38141;42.666;23.344;2023-02-22T09:42:55;94660.22;;;42.25;13.59
3178;BME280;38141;42.666;23.344;2023-02-22T09:45:36;94641.38;;;41.66;14.42
3178;BME280;38141;42.666;23.344;2023-02-22T09:48:06;94631.78;;;35.99;16.87
3178;BME280;38141;42.666;23.344;2023-02-22T09:50:36;94613.47;;;33.46;18.52
3178;BME280;38141;42.666;23.344;2023-02-22T09:53:07;94635.94;;;33.91;19.20
3178;BME280;38141;42.666;23.344;2023-02-22T09:55:38;94598.16;;;33.79;18.79
3178;BME280;38141;42.666;23.344;2023-02-22T09:58:18;94599.53;;;32.47;20.05
3178;BME280;38141;42.666;23.344;2023-02-22T10:00:49;94612.25;;;32.29;19.96
3178;BME280;38141;42.666;23.344;2023-02-22T10:03:21;94607.97;;;32.22;19.68
3178;BME280;38141;42.666;23.344;2023-02-22T10:05:53;94603.41;;;31.35;20.67
3178;BME280;38141;42.666;23.344;2023-02-22T10:08:26;94609.72;;;29.52;22.08
3178;BME280;38141;42.666;23.344;2023-02-22T10:11:07;94590.66;;;30.00;21.75
3178;BME280;38141;42.666;23.344;2023-02-22T10:13:44;94587.00;;;28.39;23.52
3178;BME280;38141;42.666;23.344;2023-02-22T10:16:21;94588.66;;;29.12;23.38
3178;BME280;38141;42.666;23.344;2023-02-22T10:19:09;94587.88;;;28.89;22.92
3178;BME280;38141;42.666;23.344;2023-02-22T10:22:02;94575.78;;;27.06;24.44
3178;BME280;38141;42.666;23.344;2023-02-22T10:24:41;94578.81;;;27.70;24.19
3178;BME280;38141;42.666;23.344;2023-02-22T10:27:15;94567.38;;;29.26;22.49
3178;BME280;38141;42.666;23.344;2023-02-22T10:29:44;94566.63;;;29.25;22.14
3178;BME280;38141;42.666;23.344;2023-02-22T10:32:16;94563.06;;;29.19;23.05
3178;BME280;38141;42.666;23.344;2023-02-22T10:34:47;94558.28;;;29.20;22.45
3178;BME280;38141;42.666;23.344;2023-02-22T10:37:23;94541.16;;;28.28;23.42
3178;BME280;38141;42.666;23.344;2023-02-22T10:39:55;94549.59;;;29.68;22.27
3178;BME280;38141;42.666;23.344;2023-02-22T10:42:26;94538.75;;;27.51;24.21
3178;BME280;38141;42.666;23.344;2023-02-22T10:44:53;94542.97;;;28.54;23.03
3178;BME280;38141;42.666;23.344;2023-02-22T10:47:22;94534.53;;;28.15;23.73
3178;BME280;38141;42.666;23.344;2023-02-22T10:49:52;94519.78;;;27.98;24.26
3178;BME280;38141;42.666;23.344;2023-02-22T10:52:24;94526.28;;;28.48;23.83
3178;BME280;38141;42.666;23.344;2023-02-22T10:54:54;94517.34;;;27.68;24.56
3178;BME280;38141;42.666;23.344;2023-02-22T10:57:24;94505.91;;;27.18;25.00
3178;BME280;38141;42.666;23.344;2023-02-22T10:59:51;94504.31;;;26.23;25.72
3178;BME280;38141;42.666;23.344;2023-02-22T11:02:28;94513.09;;;26.42;25.93
3178;BME280;38141;42.666;23.344;2023-02-22T11:04:58;94505.78;;;27.75;24.63
3178;BME280;38141;42.666;23.344;2023-02-22T11:07:27;94502.06;;;26.53;25.58
3178;BME280;38141;42.666;23.344;2023-02-22T11:09:55;94508.56;;;26.70;25.24
3178;BME280;38141;42.666;23.344;2023-02-22T11:12:29;94503.28;;;26.46;25.33
3178;BME280;38141;42.666;23.344;2023-02-22T11:14:57;94485.59;;;26.44;25.50
3178;BME280;38141;42.666;23.344;2023-02-22T11:17:29;94476.75;;;26.97;24.89
3178;BME280;38141;42.666;23.344;2023-02-22T11:19:57;94485.91;;;27.09;25.03
3178;BME280;38141;42.666;23.344;2023-02-22T11:22:26;94473.09;;;27.22;24.79
3178;BME280;38141;42.666;23.344;2023-02-22T11:24:57;94482.84;;;27.43;24.74
3178;BME280;38141;42.666;23.344;2023-02-22T11:27:30;94486.34;;;27.86;24.07
3178;BME280;38141;42.666;23.344;2023-02-22T11:30:09;94476.84;;;27.14;24.68
3178;BME280;38141;42.666;23.344;2023-02-22T11:32:42;94478.81;;;27.02;24.75
3178;BME280;38141;42.666;23.344;2023-02-22T11:35:19;94474.47;;;27.38;24.51
3178;BME280;38141;42.666;23.344;2023-02-22T11:37:46;94456.59;;;27.08;24.62
3178;BME280;38141;42.666;23.344;2023-02-22T11:40:15;94465.56;;;27.71;23.95
3178;BME280;38141;42.666;23.344;2023-02-22T11:42:47;94454.75;;;27.36;23.95
3178;BME280;38141;42.666;23.344;2023-02-22T11:45:17;94454.38;;;27.17;24.29
3178;BME280;38141;42.666;23.344;2023-02-22T11:47:52;94463.69;;;26.77;24.96
3178;BME280;38141;42.666;23.344;2023-02-22T11:50:25;94459.50;;;26.56;24.77
3178;BME280;38141;42.666;23.344;2023-02-22T11:53:02;94432.56;;;25.64;25.50
3178;BME280;38141;42.666;23.344;2023-02-22T11:55:34;94449.94;;;26.63;24.84
3178;BME280;38141;42.666;23.344;2023-02-22T11:58:18;94438.66;;;26.15;24.91
3178;BME280;38141;42.666;23.344;2023-02-22T12:00:52;94445.91;;;25.46;25.71
3178;BME280;38141;42.666;23.344;2023-02-22T12:03:39;94436.84;;;24.90;26.16
3178;BME280;38141;42.666;23.344;2023-02-22T12:06:27;94449.72;;;24.29;26.78
3178;BME280;38141;42.666;23.344;2023-02-22T12:09:04;94437.66;;;25.11;26.21
3178;BME280;38141;42.666;23.344;2023-02-22T12:11:39;94443.72;;;25.70;25.47
3178;BME280;38141;42.666;23.344;2023-02-22T12:14:18;94438.91;;;25.50;25.33
3178;BME280;38141;42.666;23.344;2023-02-22T12:17:07;94430.31;;;24.58;25.93
3178;BME280;38141;42.666;23.344;2023-02-22T12:19:42;94432.25;;;25.02;26.04
3178;BME280;38141;42.666;23.344;2023-02-22T12:22:13;94421.00;;;24.76;26.60
3178;BME280;38141;42.666;23.344;2023-02-22T12:24:45;94422.72;;;25.23;26.05
3178;BME280;38141;42.666;23.344;2023-02-22T12:27:17;94420.34;;;24.81;26.35
3178;BME280;38141;42.666;23.344;2023-02-22T12:29:48;94396.94;;;25.17;25.40
3178;BME280;38141;42.666;23.344;2023-02-22T12:32:20;94411.03;;;26.00;25.18
3178;BME280;38141;42.666;23.344;2023-02-22T12:34:58;94419.34;;;24.99;25.63
3178;BME280;38141;42.666;23.344;2023-02-22T12:37:34;94414.88;;;25.01;26.17
3178;BME280;38141;42.666;23.344;2023-02-22T12:40:06;94408.22;;;24.44;27.00
3178;BME280;38141;42.666;23.344;2023-02-22T12:42:46;94378.00;;;24.11;26.82
3178;BME280;38141;42.666;23.344;2023-02-22T12:45:23;94376.53;;;23.71;26.92
3178;BME280;38141;42.666;23.344;2023-02-22T12:47:58;94399.63;;;24.27;26.63
3178;BME280;38141;42.666;23.344;2023-02-22T12:50:31;94401.25;;;24.48;26.64
3178;BME280;38141;42.666;23.344;2023-02-22T12:53:07;94396.66;;;23.86;26.96
3178;BME280;38141;42.666;23.344;2023-02-22T12:55:42;94399.25;;;23.75;27.57
3178;BME280;38141;42.666;23.344;2023-02-22T12:58:19;94392.66;;;23.73;27.19
3178;BME280;38141;42.666;23.344;2023-02-22T13:00:53;94401.31;;;23.66;27.94
3178;BME280;38141;42.666;23.344;2023-02-22T13:03:30;94398.53;;;23.51;27.37
3178;BME280;38141;42.666;23.344;2023-02-22T13:06:10;94381.78;;;23.69;27.19
3178;BME280;38141;42.666;23.344;2023-02-22T13:08:47;94383.41;;;23.90;27.06
3178;BME280;38141;42.666;23.344;2023-02-22T13:11:21;94387.00;;;23.53;27.82
3178;BME280;38141;42.666;23.344;2023-02-22T13:14:07;94269.22;;;22.49;25.73
3178;BME280;38141;42.666;23.344;2023-02-22T13:16:46;94372.72;;;22.92;27.60
3178;BME280;38141;42.666;23.344;2023-02-22T13:19:28;94379.81;;;22.09;29.11
3178;BME280;38141;42.666;23.344;2023-02-22T13:25:06;94385.84;;;22.97;27.60
3178;BME280;38141;42.666;23.344;2023-02-22T13:27:39;94393.16;;;22.76;27.83
3178;BME280;38141;42.666;23.344;2023-02-22T13:30:18;94387.44;;;22.56;28.28